M I D A S
Marine Information and Data Acquisition System
Tripno 716 of the Zeeleeuw from 2004-05-13 06:35:09 to 2004-05-13 14:56:05
Back to CruiseResearch ActivitiesStationsMapUnderway DataData graphs

EquipmentUnitsComment
TimeDGPSUTC
LatitudeDGPSDM.mWGS84
LongitudeDGPSDM.mWGS84
HeadingGyrodeg 
SOGDGPSknotsSpeed over ground
COGDGPSdegCourse over ground
DepthEcho soundermeters200 kHz
Missing or incorrect values are displayed as -999
Navigation data collected by the RV Zeeleeuw from 2004-05-13 06:35:09 to 2004-05-13 14:56:05
                                                                                    Next 1000 lines
Time Latitude Longitude Heading SOG COG Depth
2004-05-13 06:35:17 51°13.598 2°56.097 120.3 0.1 191 9
2004-05-13 06:35:26 51°13.597 2°56.097 116.1 0.1 201 9
2004-05-13 06:35:31 51°13.597 2°56.097 113.2 0.1 220 9.1
2004-05-13 06:35:37 51°13.597 2°56.097 111.8 0.2 245 9
2004-05-13 06:35:42 51°13.597 2°56.095 110.9 0.7 286 9.1
2004-05-13 06:35:47 51°13.597 2°56.093 110.5 1.1 281 9.2
2004-05-13 06:35:51 51°13.598 2°56.09 110.5 1.5 288 9.5
2004-05-13 06:35:57 51°13.599 2°56.086 111.3 1.6 289 10.1
2004-05-13 06:36:02 51°13.599 2°56.081 112.5 2.1 290 10.5
2004-05-13 06:36:07 51°13.601 2°56.076 114.2 2.4 290 -999
2004-05-13 06:36:13 51°13.602 2°56.071 115.9 2.3 291 -999
2004-05-13 06:36:18 51°13.603 2°56.067 116.8 2 293 -999
2004-05-13 06:36:23 51°13.604 2°56.064 117.5 1.6 292 -999
2004-05-13 06:36:27 51°13.604 2°56.063 118 0.9 288 -999
2004-05-13 06:36:33 51°13.604 2°56.064 119.2 0.4 124 -999
2004-05-13 06:36:38 51°13.602 2°56.067 120.8 1.8 121 -999
2004-05-13 06:36:42 51°13.601 2°56.071 124.2 2.6 122 5.1
2004-05-13 06:36:47 51°13.598 2°56.077 127 3.3 124 11.1
2004-05-13 06:36:53 51°13.594 2°56.086 129.9 3.9 125 -999
2004-05-13 06:36:57 51°13.591 2°56.091 133.5 3.8 131 11.1
2004-05-13 06:37:02 51°13.588 2°56.097 136.8 3.8 131 11.1
2004-05-13 06:37:06 51°13.584 2°56.101 139 3.8 135 11.1
2004-05-13 06:37:12 51°13.58 2°56.108 141.4 3.8 137 11.1
2004-05-13 06:37:17 51°13.576 2°56.113 143.6 3.8 139 11.2
2004-05-13 06:37:22 51°13.572 2°56.119 144.9 3.8 140 11.3
2004-05-13 06:37:27 51°13.568 2°56.124 146.1 3.8 142 11.6
2004-05-13 06:37:31 51°13.564 2°56.128 146.2 3.9 140 11.4
2004-05-13 06:37:37 51°13.56 2°56.135 144.6 3.8 139 11.4
2004-05-13 06:37:42 51°13.556 2°56.141 142 3.8 136 11.7
2004-05-13 06:37:47 51°13.552 2°56.147 139 3.7 134 11.9
2004-05-13 06:37:52 51°13.549 2°56.153 135.7 3.6 132 11.7
2004-05-13 06:37:57 51°13.546 2°56.159 132.5 3.5 128 11.8
2004-05-13 06:38:02 51°13.543 2°56.165 130 3.5 126 11.9
2004-05-13 06:38:07 51°13.541 2°56.172 127.5 3.4 123 11.8
2004-05-13 06:38:11 51°13.539 2°56.177 124.3 3.4 117 11.8
2004-05-13 06:38:17 51°13.536 2°56.186 120.9 3.6 115 11.8
2004-05-13 06:38:22 51°13.535 2°56.195 115.3 4 103 11.7
2004-05-13 06:38:26 51°13.535 2°56.202 107.2 4.2 96 11.8
2004-05-13 06:38:32 51°13.535 2°56.214 98.6 4.3 86 11.4
2004-05-13 06:38:37 51°13.536 2°56.222 89.4 4.1 80 11.7
2004-05-13 06:38:42 51°13.538 2°56.23 81.5 3.6 72 11.4
2004-05-13 06:38:47 51°13.539 2°56.236 76.9 2.9 72 11.2
2004-05-13 06:38:52 51°13.54 2°56.239 73.1 2.2 70 11.3
2004-05-13 06:38:57 51°13.541 2°56.242 67.2 1.6 64 11.3
2004-05-13 06:39:02 51°13.541 2°56.243 61.7 0.4 67 11.3
2004-05-13 06:39:07 51°13.54 2°56.242 57.4 0.2 169 11.3
2004-05-13 06:39:12 51°13.539 2°56.241 54.4 0.8 226 11.4
2004-05-13 06:39:17 51°13.538 2°56.239 51.9 1.2 221 11.3
2004-05-13 06:39:22 51°13.536 2°56.237 49.6 1.7 226 -999
2004-05-13 06:39:27 51°13.535 2°56.234 48.1 1.7 225 -999
2004-05-13 06:39:33 51°13.533 2°56.231 47.1 1.6 223 -999
2004-05-13 06:39:38 51°13.532 2°56.23 46.6 0.9 220 -999
2004-05-13 06:39:43 51°13.532 2°56.229 45.1 0.4 222 -999
2004-05-13 06:39:47 51°13.532 2°56.23 42 0.1 337 -999
2004-05-13 06:39:53 51°13.533 2°56.231 37.7 0.5 32 -999
2004-05-13 06:39:57 51°13.534 2°56.231 32.7 1.2 21 -999
2004-05-13 06:40:02 51°13.536 2°56.232 26.9 1.5 15 -999
2004-05-13 06:40:07 51°13.539 2°56.233 20.6 1.8 14 -999
2004-05-13 06:40:13 51°13.542 2°56.234 14.6 1.8 9 -999
2004-05-13 06:40:18 51°13.543 2°56.234 10.7 1.2 11 -999
2004-05-13 06:40:22 51°13.544 2°56.234 7.7 0.7 10 -999
2004-05-13 06:40:27 51°13.544 2°56.234 4.1 0.1 359 -999
2004-05-13 06:40:32 51°13.543 2°56.234 1.4 0.6 169 5.1
2004-05-13 06:40:36 51°13.542 2°56.235   1.2 170 11.3
2004-05-13 06:40:41 51°13.54 2°56.235 358.5 1.5 171 11.2
2004-05-13 06:40:47 51°13.536 2°56.236 357.2 1.9 171 -999
2004-05-13 06:40:53 51°13.533 2°56.237 355.8 2.2 170 -999
2004-05-13 06:40:57 51°13.53 2°56.238 354.1 2.3 168 -999
2004-05-13 06:41:01 51°13.528 2°56.239 353.1 2.1 168 -999
2004-05-13 06:41:07 51°13.525 2°56.239 352.6 1.7 172 -999
2004-05-13 06:41:13 51°13.524 2°56.24 351.4 0.4 173 -999
2004-05-13 06:41:17 51°13.525 2°56.239 347.3 1 320 -999
2004-05-13 06:41:23 51°13.528 2°56.236 340.4 1.7 325 -999
2004-05-13 06:41:26 51°13.529 2°56.234 331.7 2.4 320 11.5
2004-05-13 06:41:33 51°13.533 2°56.227 324 2.7 315 11.5
2004-05-13 06:41:37 51°13.535 2°56.223 315.1 3 310 11.6
2004-05-13 06:41:42 51°13.538 2°56.216 309.6 3.2 305 -999
2004-05-13 06:41:47 51°13.54 2°56.21 305.1 3.4 301 11.6
2004-05-13 06:41:50 51°13.541 2°56.205 302.7 3.5 298 11.6
2004-05-13 06:41:57 51°13.545 2°56.195 301.8 3.7 296 11.6
2004-05-13 06:42:02 51°13.547 2°56.187 301.9 4.1 296 11.3
2004-05-13 06:42:05 51°13.549 2°56.182 303.1 4.3 298 11.5
2004-05-13 06:42:09 51°13.551 2°56.175 304.8 4.6 299 11.6
2004-05-13 06:42:17 51°13.556 2°56.159 306.1 5 299 11.4
2004-05-13 06:42:22 51°13.56 2°56.149 306.4 5.4 298 11.4
2004-05-13 06:42:26 51°13.563 2°56.14 306.2 5.6 299 11.3
2004-05-13 06:42:30 51°13.566 2°56.131 305.5 5.8 299 11.6
2004-05-13 06:42:37 51°13.572 2°56.115 305.3 6.1 299 11.2
2004-05-13 06:42:42 51°13.576 2°56.102 305.2 6.2 299 11.3
2004-05-13 06:42:46 51°13.58 2°56.092 305.2 6.5 300 11.2
2004-05-13 06:42:51 51°13.584 2°56.079 305.2 6.6 300 11.2
2004-05-13 06:42:57 51°13.59 2°56.064 305.3 6.7 300 11.2
2004-05-13 06:43:01 51°13.594 2°56.054 305.9 6.8 301 11.2
2004-05-13 06:43:05 51°13.598 2°56.043 307 6.9 303 11.2
2004-05-13 06:43:12 51°13.605 2°56.025 308.3 7 303 11.3
2004-05-13 06:43:17 51°13.611 2°56.012 309 7.1 304 11.2
2004-05-13 06:43:22 51°13.617 2°55.999 309.5 7.2 304 11.6
2004-05-13 06:43:27 51°13.622 2°55.986 309.9 7.2 305 12.2
2004-05-13 06:43:31 51°13.627 2°55.976 310.2 7.3 305 12.2
2004-05-13 06:43:37 51°13.634 2°55.96 310.6 7.4 306 12
2004-05-13 06:43:42 51°13.64 2°55.946 311 7.5 306 11.6
2004-05-13 06:43:47 51°13.647 2°55.933 311.3 7.5 306 11.5
2004-05-13 06:43:52 51°13.653 2°55.919 311.5 7.6 306 11.5
2004-05-13 06:43:57 51°13.659 2°55.906 311.8 7.6 306 11.4
2004-05-13 06:44:02 51°13.665 2°55.892 312 7.6 307 11.3
2004-05-13 06:44:07 51°13.672 2°55.879 312.1 7.7 307 11.7
2004-05-13 06:44:11 51°13.677 2°55.868 312.2 7.7 307 11.8
2004-05-13 06:44:17 51°13.685 2°55.851 312.5 7.7 307 11.3
2004-05-13 06:44:22 51°13.691 2°55.838 312.8 7.7 307 11.3
2004-05-13 06:44:27 51°13.698 2°55.824 312.9 7.8 308 11.5
2004-05-13 06:44:31 51°13.703 2°55.813 313.4 7.8 308 13
2004-05-13 06:44:36 51°13.71 2°55.8 314.1 7.8 309 13.7
2004-05-13 06:44:42 51°13.718 2°55.784 315 7.8 310 13.6
2004-05-13 06:44:47 51°13.725 2°55.771 315.9 7.8 310 13.2
2004-05-13 06:44:49 51°13.728 2°55.766 316.8 7.8 311 12.4
2004-05-13 06:44:57 51°13.739 2°55.745 317.6 7.8 311 11.4
2004-05-13 06:45:02 51°13.747 2°55.733 318.5 7.8 314 11.2
2004-05-13 06:45:06 51°13.753 2°55.723 319.9 7.8 316 11.2
2004-05-13 06:45:10 51°13.76 2°55.714 322.2 7.8 317 11.2
2004-05-13 06:45:17 51°13.771 2°55.698 324.3 7.8 320 11.3
2004-05-13 06:45:22 51°13.779 2°55.687 325.8 7.8 320 11.5
2004-05-13 06:45:26 51°13.786 2°55.679 327.5 7.8 322 11.4
2004-05-13 06:45:31 51°13.795 2°55.668 329.5 7.8 324 11.6
2004-05-13 06:45:37 51°13.806 2°55.657 331.2 7.8 326 11.9
2004-05-13 06:45:42 51°13.815 2°55.648 333.8 7.8 328 11.9
2004-05-13 06:45:47 51°13.824 2°55.639 335.9 7.8 330 11.9
2004-05-13 06:45:49 51°13.828 2°55.636 338.2 7.8 333 11.7
2004-05-13 06:45:57 51°13.844 2°55.625 340.4 7.8 334 11.8
2004-05-13 06:46:00 51°13.85 2°55.621 343.3 7.7 340 11.5
2004-05-13 06:46:07 51°13.864 2°55.613 345.4 7.7 341 11.5
2004-05-13 06:46:11 51°13.872 2°55.608 346.9 7.7 341 11.5
2004-05-13 06:46:17 51°13.884 2°55.602 347 7.7 341 11.5
2004-05-13 06:46:22 51°13.895 2°55.596 346.5 7.8 341 11.5
2004-05-13 06:46:27 51°13.905 2°55.59 346.4 7.8 341 11.5
2004-05-13 06:46:32 51°13.915 2°55.585 346.9 7.8 342 11.5
2004-05-13 06:46:37 51°13.925 2°55.58 347.1 7.8 342 11.6
2004-05-13 06:46:39 51°13.929 2°55.577 346.9 7.8 341 12.3
2004-05-13 06:46:46 51°13.944 2°55.57 346.1 7.9 341 12.6
2004-05-13 06:46:52 51°13.956 2°55.563 345.7 7.9 340 12.6
2004-05-13 06:46:57 51°13.966 2°55.557 345.9 7.9 341 12.6
2004-05-13 06:47:02 51°13.977 2°55.551 345.4 7.9 338 13
2004-05-13 06:47:07 51°13.987 2°55.544 344.4 7.9 338 13
2004-05-13 06:47:10 51°13.993 2°55.54 343.8 7.9 337 13.2
2004-05-13 06:47:17 51°14.007 2°55.53 343.3 7.9 337 13.5
2004-05-13 06:47:27 51°14.027 2°55.515 342.3 8 336 13.5
2004-05-13 06:47:32 51°14.037 2°55.508 341.9 8.2 335 13.4
2004-05-13 06:47:37 51°14.048 2°55.5 341.8 8.2 336 13.3
2004-05-13 06:47:42 51°14.058 2°55.492 341.5 8.3 333 13.3
2004-05-13 06:47:46 51°14.066 2°55.485 340 8.4 333 13.2
2004-05-13 06:47:53 51°14.081 2°55.472 338.3 8.5 331 13.2
2004-05-13 06:47:57 51°14.089 2°55.464 337.2 8.7 330 13.1
2004-05-13 06:48:02 51°14.1 2°55.454 336 9.1 328 13.1
2004-05-13 06:48:06 51°14.109 2°55.445 334.8 9.4 328 13.1
2004-05-13 06:48:12 51°14.122 2°55.431 334.4 9.7 328 13.1
2004-05-13 06:48:17 51°14.134 2°55.419 334.2 10 327 13
2004-05-13 06:48:20 51°14.141 2°55.412 333.1 10.2 326 13
2004-05-13 06:48:27 51°14.157 2°55.393 331.9 10.4 325 13
2004-05-13 06:48:31 51°14.167 2°55.382 331.5 10.5 325 13
2004-05-13 06:48:37 51°14.181 2°55.366 331.3 10.7 324 13
2004-05-13 06:48:41 51°14.191 2°55.354 330.2 10.9 321 12.9
2004-05-13 06:48:47 51°14.205 2°55.335 328.7 11 320 12.9
2004-05-13 06:48:52 51°14.217 2°55.319 326.2 11.2 319 12.9
2004-05-13 06:48:57 51°14.228 2°55.302 324.4 11.4 317 12.9
2004-05-13 06:49:02 51°14.24 2°55.284 323.7 11.5 317 12.8
2004-05-13 06:49:06 51°14.249 2°55.269 322.2 11.7 314 12.8
2004-05-13 06:49:10 51°14.258 2°55.254 319.8 11.8 313 12.8
2004-05-13 06:49:17 51°14.273 2°55.227 318.5 11.9 312 12.7
2004-05-13 06:49:28 51°14.297 2°55.182 316.7 12.3 310 12.8
2004-05-13 06:49:33 51°14.308 2°55.16 315.8 12.3 309 12.7
2004-05-13 06:49:38 51°14.318 2°55.139 315.1 12.4 308 12.8
2004-05-13 06:49:43 51°14.329 2°55.116 314.3 12.5 308 12.8
2004-05-13 06:49:45 51°14.333 2°55.107 313.5 12.7 307 12.8
2004-05-13 06:49:53 51°14.349 2°55.071 312.3 12.9 303 12.8
2004-05-13 06:49:58 51°14.359 2°55.047 310.6 12.9 303 13
2004-05-13 06:50:03 51°14.369 2°55.023 309.1 13 303 13
2004-05-13 06:50:08 51°14.381 2°55.002 308.9 13 308 12.7
2004-05-13 06:50:13 51°14.394 2°54.982 313.8 13 314 12.7
2004-05-13 06:50:17 51°14.404 2°54.966 318.1 13 318 13
2004-05-13 06:50:22 51°14.418 2°54.947 319.8 13 318 12.8
2004-05-13 06:50:25 51°14.426 2°54.936 320.2 12.9 319 13
2004-05-13 06:50:33 51°14.448 2°54.906 320.6 12.9 319 13
2004-05-13 06:50:38 51°14.462 2°54.888 321.4 13 321 12.8
2004-05-13 06:50:43 51°14.476 2°54.871 322.6 12.9 322 12.4
2004-05-13 06:50:45 51°14.481 2°54.863 323.4 12.9 322 12.1
2004-05-13 06:50:53 51°14.504 2°54.835 323.6 12.7 322 12.5
2004-05-13 06:50:58 51°14.518 2°54.818 323.7 12.8 322 12.3
2004-05-13 06:51:03 51°14.532 2°54.801 323.9 12.9 323 12.3
2004-05-13 06:51:07 51°14.543 2°54.787 324.4 12.7 322 12.1
2004-05-13 06:51:13 51°14.56 2°54.767 324.2 12.8 323 12.2
2004-05-13 06:51:18 51°14.575 2°54.75 324.6 12.9 324 12.2
2004-05-13 06:51:20 51°14.58 2°54.743 324.9 12.9 323 12.4
2004-05-13 06:51:28 51°14.604 2°54.716 325.6 12.8 325 11.9
2004-05-13 06:51:33 51°14.618 2°54.7 326.3 12.9 325 11.9
2004-05-13 06:51:38 51°14.633 2°54.684 327.1 13 326 11.9
2004-05-13 06:51:40 51°14.639 2°54.678 327.8 13 326 11.7
2004-05-13 06:51:51 51°14.672 2°54.642 328 13 326 11.9
2004-05-13 06:51:54 51°14.681 2°54.633 328 13 326 11.8
2004-05-13 06:52:01 51°14.702 2°54.611 328.2 13.1 326 11.8
2004-05-13 06:52:06 51°14.717 2°54.595 327.7 13.1 327 12
2004-05-13 06:52:11 51°14.733 2°54.579 328.5 13 328 11.9
2004-05-13 06:52:14 51°14.742 2°54.57 329.8 13 328 12.1
2004-05-13 06:52:20 51°14.761 2°54.553 330.8 13.1 330 11.9
2004-05-13 06:52:26 51°14.78 2°54.535 331.4 13 330 11.8
2004-05-13 06:52:31 51°14.795 2°54.521 332 13.1 330 11.8
2004-05-13 06:52:36 51°14.811 2°54.507 332.2 12.9 331 11.6
2004-05-13 06:52:41 51°14.827 2°54.492 332.4 13.1 330 11.6
2004-05-13 06:52:46 51°14.842 2°54.478 332.2 13.1 330 11.8
2004-05-13 06:52:51 51°14.858 2°54.463 332.3 13.1 330 11.7
2004-05-13 06:52:56 51°14.873 2°54.449 332.1 13 329 11.6
2004-05-13 06:53:01 51°14.889 2°54.435 332.3 12.9 330 11.5
2004-05-13 06:53:05 51°14.901 2°54.423 332.3 13 331 11.5
2004-05-13 06:53:10 51°14.917 2°54.409 332.5 13 330 11.2
2004-05-13 06:53:16 51°14.936 2°54.391 332.2 13.1 330 11.2
2004-05-13 06:53:21 51°14.952 2°54.377 332.4 13 331 11.1
2004-05-13 06:53:26 51°14.967 2°54.364 332.6 13 331 11
2004-05-13 06:53:31 51°14.984 2°54.351 333.7 13.1 334 10.8
2004-05-13 06:53:36 51°15 2°54.338 335.5 13.1 334 10.8
2004-05-13 06:53:41 51°15.017 2°54.327 336.7 13.3 336 10.8
2004-05-13 06:53:46 51°15.034 2°54.316 338.2 13.1 338 10.7
2004-05-13 06:53:51 51°15.051 2°54.305 339.9 13.1 338 10.8
2004-05-13 06:53:56 51°15.068 2°54.294 340.6 13.1 338 11
2004-05-13 06:54:01 51°15.085 2°54.283 340.9 13.3 339 10.9
2004-05-13 06:54:05 51°15.098 2°54.275 341.1 13.4 338 11
2004-05-13 06:54:11 51°15.119 2°54.262 340.9 13.3 337 11.1
2004-05-13 06:54:16 51°15.136 2°54.251 341.1 13.1 338 11
2004-05-13 06:54:21 51°15.153 2°54.24 340.9 13.2 338 11.2
2004-05-13 06:54:25 51°15.167 2°54.232 341 13.3 339 11.3
2004-05-13 06:54:31 51°15.187 2°54.218 341.4 13.3 337 11.3
2004-05-13 06:54:34 51°15.197 2°54.212 340.8 13.2 338 11.3
2004-05-13 06:54:41 51°15.22 2°54.196 340.4 13.3 337 11.3
2004-05-13 06:54:46 51°15.237 2°54.186 340.9 13 339 11.1
2004-05-13 06:54:51 51°15.254 2°54.175 341.1 13 339 11.4
2004-05-13 06:54:55 51°15.268 2°54.167 341.6 13 339 11.5
2004-05-13 06:55:01 51°15.288 2°54.155 341.8 13.2 339 11.4
2004-05-13 06:55:06 51°15.305 2°54.144 341.7 13.2 339 11.4
2004-05-13 06:55:11 51°15.323 2°54.134 341.3 13.1 338 11.6
2004-05-13 06:55:16 51°15.34 2°54.123 341 13.3 338 11.9
2004-05-13 06:55:26 51°15.373 2°54.1 340.4 13.2 337 11.9
2004-05-13 06:55:31 51°15.389 2°54.089 339.9 13.1 337 11.7
2004-05-13 06:55:37 51°15.409 2°54.076 340.2 13.1 338 11.8
2004-05-13 06:55:42 51°15.426 2°54.066 340.5 13.1 339 12
2004-05-13 06:55:46 51°15.44 2°54.057 341.1 13.1 339 12
2004-05-13 06:55:50 51°15.453 2°54.049 341.5 13 338 12.2
2004-05-13 06:55:57 51°15.477 2°54.034 341.2 13.1 338 12.2
2004-05-13 06:56:02 51°15.494 2°54.023 340.9 13.1 338 12.4
2004-05-13 06:56:07 51°15.51 2°54.012 340.9 13.1 338 12.2
2004-05-13 06:56:12 51°15.528 2°54.001 340.7 13.1 338 12.6
2004-05-13 06:56:17 51°15.544 2°53.99 340.8 13 338 12.4
2004-05-13 06:56:22 51°15.561 2°53.979 340.2 12.9 338 12.2
2004-05-13 06:56:27 51°15.577 2°53.968 340.1 12.9 338 12.4
2004-05-13 06:56:31 51°15.591 2°53.959 340.4 13.1 339 12.5
2004-05-13 06:56:37 51°15.611 2°53.947 340.8 13.2 339 12.5
2004-05-13 06:56:41 51°15.625 2°53.938 341.1 13.2 338 12.8
2004-05-13 06:56:47 51°15.645 2°53.925 341.1 13 338 12.7
2004-05-13 06:56:50 51°15.655 2°53.918 340.6 13.2 337 13.2
2004-05-13 06:56:56 51°15.675 2°53.904 340.4 13.2 337 13.1
2004-05-13 06:57:02 51°15.696 2°53.891 340.4 13.2 338 13
2004-05-13 06:57:07 51°15.712 2°53.881 340.5 13.1 338 13.2
2004-05-13 06:57:09 51°15.719 2°53.877 340.9 13.1 339 13
2004-05-13 06:57:15 51°15.739 2°53.864 341 13.1 338 13.2
2004-05-13 06:57:21 51°15.76 2°53.851 340.9 13.2 339 13.3
2004-05-13 06:57:27 51°15.781 2°53.839 341.6 13.2 340 13.5
2004-05-13 06:57:30 51°15.791 2°53.834 342.6 13.2 340 13.4
2004-05-13 06:57:37 51°15.815 2°53.82 343.2 13.3 341 13.5
2004-05-13 06:57:42 51°15.833 2°53.811 343.8 13.3 342 13.3
2004-05-13 06:57:47 51°15.85 2°53.802 344 13.2 342 13.6
2004-05-13 06:57:51 51°15.864 2°53.796 344 13.2 342 13.5
2004-05-13 06:57:57 51°15.885 2°53.785 344 13.2 342 13.7
2004-05-13 06:58:02 51°15.902 2°53.775 344 13.3 342 13.6
2004-05-13 06:58:07 51°15.92 2°53.766 343.7 13.3 342 13.7
2004-05-13 06:58:09 51°15.927 2°53.762 343.5 13.4 341 13.5
2004-05-13 06:58:17 51°15.954 2°53.747 343 13.3 341 13.7
2004-05-13 06:58:19 51°15.961 2°53.743 343.3 13.3 341 13.8
2004-05-13 06:58:27 51°15.989 2°53.728 343.3 13.3 342 13.8
2004-05-13 06:58:31 51°16.004 2°53.721 343.3 13.3 341 13.7
2004-05-13 06:58:37 51°16.024 2°53.709 343.3 13.4 341 13.8
2004-05-13 06:58:42 51°16.042 2°53.7 343.3 13.4 341 14
2004-05-13 06:58:47 51°16.059 2°53.691 343.6 13.3 341 13.8
2004-05-13 06:58:52 51°16.077 2°53.681 343.4 13.2 341 13.9
2004-05-13 06:58:57 51°16.094 2°53.671 343.2 13.3 341 14
2004-05-13 06:59:01 51°16.108 2°53.664 343.1 13.4 341 13.9
2004-05-13 06:59:07 51°16.13 2°53.652 343.4 13.4 341 14
2004-05-13 06:59:10 51°16.14 2°53.647 343.6 13.3 341 14.2
2004-05-13 06:59:17 51°16.164 2°53.634 343.5 13.3 341 13.9
2004-05-13 06:59:22 51°16.182 2°53.625 343.3 13.3 342 14.1
2004-05-13 06:59:27 51°16.199 2°53.615 343.2 13.4 342 14
2004-05-13 06:59:32 51°16.217 2°53.606 343.1 13.4 342 14
2004-05-13 06:59:37 51°16.235 2°53.596 343.3 13.4 341 14.2
2004-05-13 06:59:42 51°16.252 2°53.586 343.3 13.2 341 14.3
2004-05-13 06:59:47 51°16.269 2°53.577 343 13.3 341 14.2
2004-05-13 06:59:52 51°16.287 2°53.567 342.6 13.4 341 14.3
2004-05-13 06:59:57 51°16.304 2°53.557 342.8 13.4 341 14.3
2004-05-13 07:00:02 51°16.322 2°53.547 343.3 13.3 341 14.3
2004-05-13 07:00:07 51°16.34 2°53.539 343.5 13.3 342 14.2
2004-05-13 07:00:12 51°16.357 2°53.529 344 13.4 342 14.4
2004-05-13 07:00:17 51°16.375 2°53.52 344.1 13.3 342 14.2
2004-05-13 07:00:20 51°16.385 2°53.515 344 13.3 342 14.3
2004-05-13 07:00:27 51°16.41 2°53.502 343.5 13.3 342 14.2
2004-05-13 07:00:32 51°16.427 2°53.492 343.3 13.3 341 14.3
2004-05-13 07:00:37 51°16.445 2°53.482 343 13.3 341 14.4
2004-05-13 07:00:42 51°16.462 2°53.472 342.8 13.4 341 14.5
2004-05-13 07:00:47 51°16.48 2°53.463 342.8 13.4 341 14.3
2004-05-13 07:00:49 51°16.487 2°53.459 343.2 13.3 341 14.5
2004-05-13 07:00:57 51°16.514 2°53.443 343.2 13.3 340 14.4
2004-05-13 07:01:02 51°16.532 2°53.434 343 13.2 341 14.3
2004-05-13 07:01:07 51°16.549 2°53.424 343.2 13.3 341 14.2
2004-05-13 07:01:10 51°16.56 2°53.418 343.4 13.4 341 14.1
2004-05-13 07:01:17 51°16.584 2°53.405 343.5 13.2 341 14.4
2004-05-13 07:01:22 51°16.601 2°53.395 343.2 13.3 341 14.2
2004-05-13 07:01:27 51°16.619 2°53.386 342.9 13.3 341 14.2
2004-05-13 07:01:32 51°16.636 2°53.376 343.2 13.3 341 14
2004-05-13 07:01:37 51°16.653 2°53.367 343.4 13.4 341 13.9
2004-05-13 07:01:42 51°16.671 2°53.357 343.3 13.2 341 13.9
2004-05-13 07:01:47 51°16.688 2°53.348 343.3 13.4 341 13.8
2004-05-13 07:01:52 51°16.706 2°53.338 343.2 13.3 341 13.6
2004-05-13 07:01:57 51°16.723 2°53.328 343.1 13.2 340 13.7
2004-05-13 07:02:02 51°16.741 2°53.318 342.9 13.2 340 13.5
2004-05-13 07:02:07 51°16.758 2°53.308 342.6 13.2 341 13.2
2004-05-13 07:02:12 51°16.775 2°53.299 343.1 13.3 341 13.3
2004-05-13 07:02:17 51°16.793 2°53.289 343.5 13.2 342 13.4
2004-05-13 07:02:22 51°16.81 2°53.28 343.7 13.3 340 13.2
2004-05-13 07:02:27 51°16.827 2°53.27 343.3 13.3 340 13.3
2004-05-13 07:02:31 51°16.841 2°53.261 343 13.2 340 12.9
2004-05-13 07:02:37 51°16.862 2°53.25 343.3 13.3 341 12.3
2004-05-13 07:02:41 51°16.876 2°53.242 343.3 13.2 340 11.6
2004-05-13 07:02:47 51°16.897 2°53.231 343.6 13.3 342 10.8
2004-05-13 07:02:50 51°16.907 2°53.225 343.4 13 341 10.5
2004-05-13 07:02:57 51°16.931 2°53.212 343.2 13.1 341 10.5
2004-05-13 07:03:01 51°16.944 2°53.204 343.2 13.1 341 10.2
2004-05-13 07:03:07 51°16.965 2°53.193 343.6 13.2 341 10.5
2004-05-13 07:03:12 51°16.982 2°53.184 343.5 12.9 341 10.3
2004-05-13 07:03:17 51°16.999 2°53.174 343.2 13.1 341 10.2
2004-05-13 07:03:20 51°17.009 2°53.169 343 13.1 341 10.5
2004-05-13 07:03:27 51°17.034 2°53.156 343.6 13.2 342 10.5
2004-05-13 07:03:30 51°17.045 2°53.151 345 13.3 344 10.5
2004-05-13 07:03:37 51°17.07 2°53.141 346.9 13.4 345 10.9
2004-05-13 07:03:42 51°17.088 2°53.134 348 13.4 346 11
2004-05-13 07:03:47 51°17.106 2°53.127 348.6 13.4 346 11.3
2004-05-13 07:03:52 51°17.124 2°53.12 348.6 13.4 346 11.2
2004-05-13 07:03:57 51°17.142 2°53.112 348.9 13.4 346 11.2
2004-05-13 07:04:02 51°17.16 2°53.105 348.6 13.4 346 11.2
2004-05-13 07:04:07 51°17.178 2°53.098 348.9 13.5 346 11.4
2004-05-13 07:04:12 51°17.196 2°53.092 349.4 13.4 347 9.8
2004-05-13 07:04:17 51°17.215 2°53.085 349.1 13.5 347 11.4
2004-05-13 07:04:21 51°17.229 2°53.081 350.3 13.6 350 11.5
2004-05-13 07:04:27 51°17.252 2°53.076 352 13.5 351 11.5
2004-05-13 07:04:32 51°17.27 2°53.072 353.4 13.4 353 11.4
2004-05-13 07:04:37 51°17.289 2°53.07 355 13.4 355 11.5
2004-05-13 07:04:39 51°17.296 2°53.07 358.4 13.7   11.7
2004-05-13 07:04:47 51°17.327 2°53.071 1.7 13.7 2 11.7
2004-05-13 07:04:51 51°17.342 2°53.072 4.4 13.5 4 11.6
2004-05-13 07:04:57 51°17.364 2°53.076 6.1 13.6 5 11.5
2004-05-13 07:05:01 51°17.379 2°53.079 7.9 13.6 7 11.9
2004-05-13 07:05:07 51°17.402 2°53.086 9.9 13.8 11 11.7
2004-05-13 07:05:11 51°17.417 2°53.093 14.5 13.9 15 12
2004-05-13 07:05:17 51°17.438 2°53.105 18.8 13.9 17 11.9
2004-05-13 07:05:22 51°17.457 2°53.116 21.8 14 21 12
2004-05-13 07:05:27 51°17.474 2°53.128 24.2 14 23 11.9
2004-05-13 07:05:32 51°17.492 2°53.141 26.6 14.1 25 11.9
2004-05-13 07:05:37 51°17.51 2°53.154 27.3 14.1 24 12
2004-05-13 07:05:42 51°17.527 2°53.168 28.3 14.1 26 12
2004-05-13 07:05:47 51°17.545 2°53.181 29.2 14 26 11.9
2004-05-13 07:05:51 51°17.559 2°53.192 29.5 14.2 27 12.1
2004-05-13 07:05:57 51°17.579 2°53.21 30.4 14.1 28 11.9
2004-05-13 07:06:02 51°17.597 2°53.226 32 14.1 29 12.1
2004-05-13 07:06:07 51°17.613 2°53.242 33.3 14.2 30 12.2
2004-05-13 07:06:12 51°17.631 2°53.257 33.5 14.1 29 11.8
2004-05-13 07:06:17 51°17.647 2°53.273 33.9 14.1 31 12
2004-05-13 07:06:21 51°17.661 2°53.286 33.9 14.3 30 12.1
2004-05-13 07:06:27 51°17.681 2°53.304 33.6 14.1 30 12
2004-05-13 07:06:29 51°17.688 2°53.311 33.5 14.1 30 12
2004-05-13 07:06:37 51°17.715 2°53.336 33.6 14.1 30 12
2004-05-13 07:06:42 51°17.732 2°53.351 33.3 14.2 29 12.2
2004-05-13 07:06:46 51°17.746 2°53.363 32.5 14.1 30 12
2004-05-13 07:06:53 51°17.769 2°53.385 32.7 14 30 12.1
2004-05-13 07:06:57 51°17.783 2°53.397 33.1 14 31 12.2
2004-05-13 07:07:02 51°17.8 2°53.413 33.4 14.2 30 12.2
2004-05-13 07:07:07 51°17.817 2°53.428 33.2 14.2 29 12.1
2004-05-13 07:07:10 51°17.827 2°53.438 33.1 14.2 29 12.2
2004-05-13 07:07:17 51°17.851 2°53.459 32.9 14.1 29 12.3
2004-05-13 07:07:22 51°17.868 2°53.474 32.3 14.2 29 12.2
2004-05-13 07:07:27 51°17.886 2°53.489 32.2 14.2 29 12.2
2004-05-13 07:07:30 51°17.896 2°53.498 32.2 14.2 28 12.2
2004-05-13 07:07:37 51°17.92 2°53.519 31.8 14.1 28 12.2
2004-05-13 07:07:42 51°17.937 2°53.534 32 14.1 28 12.3
2004-05-13 07:07:47 51°17.955 2°53.549 31.9 14.1 28 12.1
2004-05-13 07:07:49 51°17.962 2°53.556 32.3 14.2 28 12.4
2004-05-13 07:07:57 51°17.989 2°53.578 31.8 14.2 28 12.3
2004-05-13 07:08:02 51°18.007 2°53.594 31.7 14.1 29 12.3
2004-05-13 07:08:06 51°18.021 2°53.606 31.9 14.2 28 12.5
2004-05-13 07:08:10 51°18.034 2°53.617 31.2 14 28 12.3
2004-05-13 07:08:17 51°18.058 2°53.638 31.8 14.1 28 12.4
2004-05-13 07:08:19 51°18.065 2°53.644 31.6 14.2 29 12.4
2004-05-13 07:08:27 51°18.093 2°53.667 31.5 14.2 27 12.5
2004-05-13 07:08:32 51°18.11 2°53.682 31.2 14 28 12.5
2004-05-13 07:08:37 51°18.128 2°53.697 31.3 14.1 28 12.7
2004-05-13 07:08:42 51°18.145 2°53.712 31.4 14.2 28 12.7
2004-05-13 07:08:47 51°18.162 2°53.726 31.5 14.1 27 12.6
2004-05-13 07:08:52 51°18.179 2°53.741 31.3 14.1 28 12.6
2004-05-13 07:08:57 51°18.197 2°53.755 31.2 14 27 12.7
2004-05-13 07:09:02 51°18.214 2°53.769 30.8 14 28 12.6
2004-05-13 07:09:07 51°18.231 2°53.784 30.9 13.9 28 12.7
2004-05-13 07:09:10 51°18.241 2°53.793 31.3 13.9 29 12.9
2004-05-13 07:09:17 51°18.266 2°53.813 31.2 14 28 12.6
2004-05-13 07:09:22 51°18.282 2°53.828 30.6 14.1 29 12.9
2004-05-13 07:09:27 51°18.299 2°53.845 33.2 14.1 33 13
2004-05-13 07:09:32 51°18.314 2°53.862 35.8 14 35 12.7
2004-05-13 07:09:37 51°18.33 2°53.88 38.2 14 36 12.7
2004-05-13 07:09:42 51°18.346 2°53.899 39.7 14 37 12.9
2004-05-13 07:09:47 51°18.361 2°53.918 40.8 13.9 38 12.8
2004-05-13 07:09:51 51°18.373 2°53.934 42.4 13.9 39 13.1
2004-05-13 07:09:57 51°18.391 2°53.958 42.7 14.2 39 13.2
2004-05-13 07:10:02 51°18.406 2°53.978 43 14.2 39 13
2004-05-13 07:10:07 51°18.421 2°53.998 43 14.2 40 13
2004-05-13 07:10:12 51°18.436 2°54.018 43.2 14.2 39 12.9
2004-05-13 07:10:17 51°18.452 2°54.037 42.8 14.1 38 13
2004-05-13 07:10:22 51°18.467 2°54.057 42.2 14.2 38 13
2004-05-13 07:10:26 51°18.479 2°54.073 42.2 14.2 41 12.9
2004-05-13 07:10:30 51°18.491 2°54.09 44.6 14.1 42 13
2004-05-13 07:10:37 51°18.51 2°54.122 47 14.1 46 13.2
2004-05-13 07:10:42 51°18.524 2°54.144 49.2 14.3 47 13.1
2004-05-13 07:10:47 51°18.537 2°54.168 50.5 14.4 48 13.1
2004-05-13 07:10:51 51°18.547 2°54.188 52.3 14.2 50 13
2004-05-13 07:10:57 51°18.563 2°54.216 52.9 14.2 48 13
2004-05-13 07:11:02 51°18.575 2°54.24 53 14.3 50 13
2004-05-13 07:11:06 51°18.586 2°54.259 53.4 14.3 48 13
2004-05-13 07:11:09 51°18.594 2°54.274 53.3 14.3 50 13.1
2004-05-13 07:11:17 51°18.614 2°54.312 53.4 14.4 49 13.3
2004-05-13 07:11:19 51°18.619 2°54.322 53.4 14.3 49 13.2
2004-05-13 07:11:27 51°18.64 2°54.36 52.7 14.4 49 13.2
2004-05-13 07:11:31 51°18.65 2°54.381 54 14.3 52 13
2004-05-13 07:11:37 51°18.665 2°54.411 54.9 14.4 52 13.1
2004-05-13 07:11:41 51°18.674 2°54.431 55.8 14.4 53 13.1
2004-05-13 07:11:46 51°18.686 2°54.456 57 14.4 53 13.3
2004-05-13 07:11:51 51°18.698 2°54.482 57.6 14.4 53 13.2
2004-05-13 07:11:57 51°18.712 2°54.513 57.4 14.4 54 13.3
2004-05-13 07:12:02 51°18.725 2°54.538 57.4 14.4 52 13.4
2004-05-13 07:12:07 51°18.736 2°54.563 56.2 14.3 53 13.3
2004-05-13 07:12:10 51°18.743 2°54.578 57.3 14.3 54 13.4
2004-05-13 07:12:17 51°18.76 2°54.614 57 14.3 52 13.3
2004-05-13 07:12:22 51°18.772 2°54.639 56.7 14.4 53 13.2
2004-05-13 07:12:27 51°18.784 2°54.664 57.4 14.5 53 13.3
2004-05-13 07:12:30 51°18.792 2°54.68 56.5 14.2 52 13.1
2004-05-13 07:12:37 51°18.808 2°54.715 57.1 14.3 53 13.1
2004-05-13 07:12:42 51°18.82 2°54.74 56.7 14.3 53 13
2004-05-13 07:12:46 51°18.83 2°54.759 56.4 14.2 51 13.1
2004-05-13 07:12:52 51°18.845 2°54.79 56.1 14.3 52 13.3
2004-05-13 07:12:57 51°18.857 2°54.815 56.3 14.3 52 13.3
2004-05-13 07:13:02 51°18.869 2°54.84 56 14.2 53 13.1
2004-05-13 07:13:07 51°18.882 2°54.865 56.5 14.2 52 13.4
2004-05-13 07:13:10 51°18.889 2°54.88 56.6 14.2 53 13.5
2004-05-13 07:13:17 51°18.906 2°54.915 56.4 14.3 51 13.4
2004-05-13 07:13:19 51°18.911 2°54.925 56.2 14.3 53 13.4
2004-05-13 07:13:27 51°18.93 2°54.965 55.8 14.2 53 13.8
2004-05-13 07:13:31 51°18.94 2°54.985 56 14.2 53 13.5
2004-05-13 07:13:37 51°18.954 2°55.015 56.3 14.3 52 13.3
2004-05-13 07:13:41 51°18.964 2°55.034 55.6 14.4 51 13.3
2004-05-13 07:13:47 51°18.979 2°55.065 55.2 14.4 53 13.5
2004-05-13 07:13:50 51°18.986 2°55.08 56.1 14.5 52 13
2004-05-13 07:13:57 51°19.003 2°55.114 55.4 14.1 53 13.2
2004-05-13 07:14:02 51°19.015 2°55.139 56.7 14.2 52 13.2
2004-05-13 07:14:07 51°19.027 2°55.164 55.7 14.2 52 13.3
2004-05-13 07:14:11 51°19.037 2°55.183 55.5 14.2 52 13.4
2004-05-13 07:14:17 51°19.052 2°55.213 55.8 14.3 52 13.1
2004-05-13 07:14:22 51°19.064 2°55.238 55.9 14.1 52 13.4
2004-05-13 07:14:27 51°19.076 2°55.264 56.6 14.2 53 13.5
2004-05-13 07:14:30 51°19.083 2°55.278 56.6 14.2 52 13.6
2004-05-13 07:14:37 51°19.1 2°55.314 56.2 14.3 53 13.6
2004-05-13 07:14:40 51°19.107 2°55.328 56.2 14.3 53 13.7
2004-05-13 07:14:47 51°19.124 2°55.364 56.6 14.3 53 13.5
2004-05-13 07:14:52 51°19.136 2°55.389 57.1 14.2 54 13.5
2004-05-13 07:14:57 51°19.148 2°55.415 58.4 14.2 54 13.5
2004-05-13 07:15:01 51°19.157 2°55.435 57.6 14.2 54 13.3
2004-05-13 07:15:05 51°19.166 2°55.457 58.6 14.3 54 13.4
2004-05-13 07:15:10 51°19.178 2°55.481 57.9 14.4 55 13.6
2004-05-13 07:15:17 51°19.195 2°55.517 57.9 14.4 55 13.4
2004-05-13 07:15:22 51°19.206 2°55.544 57.9 14.3 56 13.7
2004-05-13 07:15:27 51°19.218 2°55.568 58.6 14.3 52 13.5
2004-05-13 07:15:32 51°19.23 2°55.594 57.1 14.3 55 13.4
2004-05-13 07:15:37 51°19.242 2°55.619 58 14.4 52 13.4
2004-05-13 07:15:41 51°19.251 2°55.64 57 14.4 54 13.5
2004-05-13 07:15:47 51°19.266 2°55.67 57.3 14.5 53 13.6
2004-05-13 07:15:51 51°19.276 2°55.691 57.3 14.3 54 13.4
2004-05-13 07:15:57 51°19.29 2°55.722 58 14.4 53 13.4
2004-05-13 07:16:01 51°19.299 2°55.742 58.1 14.4 53 13.5
2004-05-13 07:16:07 51°19.312 2°55.774 59.5 14.4 55 13.5
2004-05-13 07:16:12 51°19.323 2°55.8 60 14.3 57 13.3
2004-05-13 07:16:17 51°19.334 2°55.827 61.5 14.4 57 13.3
2004-05-13 07:16:22 51°19.345 2°55.854 61.1 14.4 58 13.3
2004-05-13 07:16:27 51°19.356 2°55.881 61.8 14.4 58 13.3
2004-05-13 07:16:32 51°19.366 2°55.908 62.3 14.3 58 13.4
2004-05-13 07:16:37 51°19.377 2°55.934 62 14.3 57 13.4
2004-05-13 07:16:42 51°19.388 2°55.961 61.7 14.2 57 13.3
2004-05-13 07:16:47 51°19.398 2°55.988 62.1 14.3 58 13.3
2004-05-13 07:16:52 51°19.409 2°56.014 61.7 14.3 56 13.4
2004-05-13 07:16:57 51°19.42 2°56.041 61.6 14.4 58 13.3
2004-05-13 07:17:02 51°19.431 2°56.068 62 14.4 56 13.5
2004-05-13 07:17:07 51°19.441 2°56.095 61.6 14.4 57 13.2
2004-05-13 07:17:10 51°19.448 2°56.112 62.6 14.3 57 13.1
2004-05-13 07:17:17 51°19.463 2°56.148 62.1 14.4 56 13.3
2004-05-13 07:17:22 51°19.473 2°56.176 62.3 14.3 59 13.2
2004-05-13 07:17:27 51°19.485 2°56.202 62.5 14.4 56 13
2004-05-13 07:17:32 51°19.495 2°56.23 61.7 14.5 58 13
2004-05-13 07:17:37 51°19.506 2°56.256 61.8 14.4 57 13.2
2004-05-13 07:17:42 51°19.517 2°56.283 61.3 14.4 57 13.5
2004-05-13 07:17:46 51°19.526 2°56.305 61.4 14.5 57 13.4
2004-05-13 07:17:52 51°19.539 2°56.337 61.8 14.5 57 13.3
2004-05-13 07:17:57 51°19.55 2°56.364 61.6 14.4 56 13.4
2004-05-13 07:18:01 51°19.558 2°56.386 61.9 14.4 58 13.4
2004-05-13 07:18:07 51°19.571 2°56.418 61.6 14.4 58 13.6
2004-05-13 07:18:12 51°19.582 2°56.444 61.3 14.3 57 13.6
2004-05-13 07:18:17 51°19.592 2°56.471 61.4 14.3 57 13.4
2004-05-13 07:18:22 51°19.603 2°56.498 61.7 14.3 57 13.5
2004-05-13 07:18:27 51°19.614 2°56.525 61.2 14.4 57 13.4
2004-05-13 07:18:31 51°19.623 2°56.546 61.8 14.4 56 13.6
2004-05-13 07:18:37 51°19.636 2°56.578 61.5 14.3 56 13.7
2004-05-13 07:18:42 51°19.646 2°56.605 61.6 14.3 57 13.9
2004-05-13 07:18:47 51°19.657 2°56.632 61.6 14.4 58 13.6
2004-05-13 07:18:50 51°19.664 2°56.648 61.8 14.5 56 13.6
2004-05-13 07:18:57 51°19.679 2°56.685 61.1 14.5 58 13.5
2004-05-13 07:19:02 51°19.69 2°56.712 61.7 14.5 56 13.8
2004-05-13 07:19:07 51°19.701 2°56.739 60.9 14.4 58 13.5
2004-05-13 07:19:10 51°19.707 2°56.756 62.2 14.5 58 13.2
2004-05-13 07:19:17 51°19.722 2°56.793 62.1 14.4 55 13.2
2004-05-13 07:19:21 51°19.731 2°56.815 61.6 14.6 56 13.5
2004-05-13 07:19:27 51°19.744 2°56.847 61.3 14.5 56 13.4
2004-05-13 07:19:32 51°19.754 2°56.874 60.9 14.4 59 13
2004-05-13 07:19:37 51°19.766 2°56.901 61.6 14.3 57 13.3
2004-05-13 07:19:42 51°19.776 2°56.927 61.4 14.2 57 13.1
2004-05-13 07:19:47 51°19.786 2°56.955 61.5 14.2 58 13
2004-05-13 07:19:52 51°19.798 2°56.981 61.6 14.3 56 13.4
2004-05-13 07:19:57 51°19.808 2°57.008 61 14.3 58 13.4
2004-05-13 07:20:02 51°19.819 2°57.035 61.6 14.2 58 13.6
2004-05-13 07:20:07 51°19.829 2°57.061 60.9 14.1 58 13
2004-05-13 07:20:12 51°19.839 2°57.088 62.8 14.3 59 13.4
2004-05-13 07:20:17 51°19.85 2°57.115 62 14.2 57 13.5
2004-05-13 07:20:21 51°19.858 2°57.135 61 14.1 58 13.5
2004-05-13 07:20:27 51°19.871 2°57.167 61.4 14.2 57 13.4
2004-05-13 07:20:32 51°19.882 2°57.193 61.2 14.3 55 13.6
2004-05-13 07:20:37 51°19.893 2°57.221 60.8 14.5 57 13.7
2004-05-13 07:20:42 51°19.904 2°57.247 61.4 14.4 56 13.8
2004-05-13 07:20:47 51°19.914 2°57.274 61.1 14.4 57 13.7
2004-05-13 07:20:49 51°19.919 2°57.285 61.2 14.4 57 13.6
2004-05-13 07:20:57 51°19.936 2°57.328 61.8 14.5 58 13.4
2004-05-13 07:21:02 51°19.948 2°57.355 61.5 14.7 55 13.5
2004-05-13 07:21:07 51°19.958 2°57.382 60.9 14.6 58 13.6
2004-05-13 07:21:09 51°19.963 2°57.393 61 14.4 56 13.3
2004-05-13 07:21:17 51°19.98 2°57.436 62.5 14.4 60 13.6
2004-05-13 07:21:22 51°19.991 2°57.463 61.6 14.5 56 13.4
2004-05-13 07:21:27 51°20.001 2°57.491 61.2 14.6 58 13.6
2004-05-13 07:21:30 51°20.008 2°57.507 61.1 14.4 56 13.4
2004-05-13 07:21:35 51°20.019 2°57.534 61.1 14.4 58 13.2
2004-05-13 07:21:42 51°20.034 2°57.571 61.6 14.5 57 13.3
2004-05-13 07:21:47 51°20.045 2°57.598 61.5 14.5 57 13.4
2004-05-13 07:21:52 51°20.056 2°57.626 61.2 14.6 59 13.6
2004-05-13 07:21:57 51°20.066 2°57.652 61.5 14.5 59 13.2
2004-05-13 07:22:00 51°20.073 2°57.669 61.7 14.4 59 13.3
2004-05-13 07:22:07 51°20.088 2°57.706 61.5 14.4 56 13.2
2004-05-13 07:22:10 51°20.094 2°57.722 61 14.4 58 13.3
2004-05-13 07:22:17 51°20.11 2°57.76 60.9 14.3 57 13.4
2004-05-13 07:22:22 51°20.121 2°57.786 60.7 14.5 56 13.4
2004-05-13 07:22:27 51°20.131 2°57.813 60.3 14.5 57 13.6
2004-05-13 07:22:29 51°20.135 2°57.824 61.1 14.3 57 13.4
2004-05-13 07:22:37 51°20.153 2°57.868 61.4 14.6 59 13.3
2004-05-13 07:22:41 51°20.161 2°57.889 61.5 14.5 58 13.6
2004-05-13 07:22:47 51°20.174 2°57.922 61.8 14.5 58 13.4
2004-05-13 07:22:50 51°20.181 2°57.938 61.5 14.3 57 13.3
2004-05-13 07:22:57 51°20.195 2°57.976 61.2 14.5 57 13.1
2004-05-13 07:23:02 51°20.207 2°58.002 61.2 14.5 55 13.5
2004-05-13 07:23:07 51°20.217 2°58.03 61 14.5 59 13.4
2004-05-13 07:23:10 51°20.224 2°58.046 61.7 14.6 57 13.4
2004-05-13 07:23:19 51°20.243 2°58.095 60.8 14.6 58 13.4
2004-05-13 07:23:21 51°20.248 2°58.105 61 14.5 56 13.4
2004-05-13 07:23:29 51°20.265 2°58.149 61.8 14.6 59 13.3
2004-05-13 07:23:34 51°20.276 2°58.176 61.9 14.6 58 13.4
2004-05-13 07:23:39 51°20.286 2°58.204 62.4 14.6 59 13.4
2004-05-13 07:23:41 51°20.291 2°58.215 63.1 14.7 58 13.2
2004-05-13 07:23:49 51°20.306 2°58.26 63.7 14.8 61 12.9
2004-05-13 07:23:53 51°20.315 2°58.282 64.4 14.4 59 13.1
2004-05-13 07:23:59 51°20.327 2°58.316 64.2 14.5 61 12.9
2004-05-13 07:24:04 51°20.337 2°58.344 64.4 14.6 59 13.2
2004-05-13 07:24:09 51°20.347 2°58.371 63.2 14.5 59 13.2
2004-05-13 07:24:14 51°20.358 2°58.399 62.8 14.5 60 13.3
2004-05-13 07:24:19 51°20.368 2°58.427 63.3 14.6 59 13.4
2004-05-13 07:24:23 51°20.376 2°58.45 63.8 14.7 58 13.4
2004-05-13 07:24:29 51°20.389 2°58.482 62.8 14.6 59 13.4
2004-05-13 07:24:33 51°20.397 2°58.505 63.8 14.5 61 13.3
2004-05-13 07:24:39 51°20.41 2°58.538 63.8 14.7 58 13.3
2004-05-13 07:24:44 51°20.42 2°58.567 63.4 14.7 61 13.4
2004-05-13 07:24:49 51°20.43 2°58.595 63.6 14.7 59 13.6
2004-05-13 07:24:54 51°20.44 2°58.623 63.3 14.7 61 13.6
2004-05-13 07:24:59 51°20.45 2°58.651 63.8 14.7 60 13.2
2004-05-13 07:25:01 51°20.454 2°58.662 63.7 14.8 60 13.2
2004-05-13 07:25:09 51°20.471 2°58.707 63.7 14.7 59 13.2
2004-05-13 07:25:13 51°20.479 2°58.73 63.2 14.7 60 13.5
2004-05-13 07:25:19 51°20.491 2°58.763 63.3 14.7 60 13.2
2004-05-13 07:25:24 51°20.502 2°58.791 63.1 14.6 58 13.2
2004-05-13 07:25:29 51°20.512 2°58.82 64 14.7 61 13.2
2004-05-13 07:25:34 51°20.523 2°58.848 63.8 14.7 59 13.2
2004-05-13 07:25:39 51°20.533 2°58.876 63.2 14.6 60 13.2
2004-05-13 07:25:43 51°20.541 2°58.898 63.5 14.6 59 13
2004-05-13 07:25:49 51°20.554 2°58.932 63.5 14.8 60 13.2
2004-05-13 07:25:54 51°20.564 2°58.96 63.4 14.7 58 13.2
2004-05-13 07:25:57 51°20.57 2°58.976 63.3 14.6 61 13.3
2004-05-13 07:26:04 51°20.585 2°59.015 62.7 14.6 58 13.4
2004-05-13 07:26:09 51°20.595 2°59.043 63.2 14.6 59 13.6
2004-05-13 07:26:13 51°20.604 2°59.065 63.2 14.6 58 13.4
2004-05-13 07:26:19 51°20.616 2°59.099 62.9 14.6 59 13.3
2004-05-13 07:26:24 51°20.626 2°59.127 63.9 14.7 60 13.3
2004-05-13 07:26:29 51°20.637 2°59.155 63.4 14.8 59 13.4
2004-05-13 07:26:34 51°20.647 2°59.183 63.1 14.6 59 13.2
2004-05-13 07:26:39 51°20.658 2°59.211 63.4 14.7 59 13.4
2004-05-13 07:26:44 51°20.668 2°59.239 63.1 14.6 60 13.4
2004-05-13 07:26:49 51°20.678 2°59.267 64 14.7 61 13.2
2004-05-13 07:26:54 51°20.688 2°59.295 63.8 14.7 59 13.4
2004-05-13 07:26:58 51°20.696 2°59.318 63.1 14.6 60 13.4
2004-05-13 07:27:03 51°20.706 2°59.345 63.6 14.5 59 13.3
2004-05-13 07:27:09 51°20.719 2°59.379 63.4 14.6 60 13.5
2004-05-13 07:27:14 51°20.729 2°59.407 63.1 14.7 59 13.5
2004-05-13 07:27:18 51°20.737 2°59.429 62.8 14.7 60 13.3
2004-05-13 07:27:24 51°20.749 2°59.463 63.8 14.8 60 13.4
2004-05-13 07:27:29 51°20.76 2°59.491 63.7 14.6 59 13.4
2004-05-13 07:27:34 51°20.77 2°59.519 63.5 14.7 61 13.2
2004-05-13 07:27:43 51°20.788 2°59.569 63.3 14.6 61 13.2
2004-05-13 07:27:48 51°20.799 2°59.597 63.8 14.6 60 13.1
2004-05-13 07:27:53 51°20.809 2°59.625 63.5 14.6 60 13.5
2004-05-13 07:27:58 51°20.819 2°59.653 63.3 14.7 59 13.4
2004-05-13 07:28:03 51°20.829 2°59.681 63 14.6 60 13.4
2004-05-13 07:28:07 51°20.838 2°59.704 63.5 14.5 59 13.5
2004-05-13 07:28:13 51°20.849 2°59.737 63.7 14.5 60 13.3
2004-05-13 07:28:18 51°20.86 2°59.765 63.6 14.6 59 13.3
2004-05-13 07:28:23 51°20.87 2°59.793 63.1 14.7 59 13.3
2004-05-13 07:28:28 51°20.881 2°59.82 62.6 14.6 59 13.2
2004-05-13 07:28:33 51°20.891 2°59.849 63.6 14.6 59 13.2
2004-05-13 07:28:38 51°20.901 2°59.877 63.3 14.6 59 13.3
2004-05-13 07:28:43 51°20.912 2°59.905 63.3 14.6 60 13.2
2004-05-13 07:28:48 51°20.922 2°59.933 62.9 14.8 60 13.6
2004-05-13 07:28:53 51°20.932 2°59.961 62.5 14.6 61 13.3
2004-05-13 07:28:57 51°20.94 2°59.983 63.2 14.6 60 13.4
2004-05-13 07:29:03 51°20.952 3°0.017 63 14.5 60 13.1
2004-05-13 07:29:08 51°20.963 3°0.044 63.8 14.6 59 13.2
2004-05-13 07:29:13 51°20.973 3°0.072 62.8 14.6 59 13.4
2004-05-13 07:29:17 51°20.981 3°0.095 62.9 14.7 60 13.4
2004-05-13 07:29:23 51°20.994 3°0.128 63.3 14.7 59 13.5
2004-05-13 07:29:27 51°21.002 3°0.151 63 14.7 59 13.3
2004-05-13 07:29:33 51°21.015 3°0.184 63.7 14.6 60 13.2
2004-05-13 07:29:38 51°21.025 3°0.212 63.7 14.6 59 13.3
2004-05-13 07:29:43 51°21.035 3°0.24 63.7 14.6 60 13.2
2004-05-13 07:29:47 51°21.043 3°0.263 63.2 14.6 59 13.4
2004-05-13 07:29:53 51°21.056 3°0.296 62.7 14.6 60 13.5
2004-05-13 07:29:57 51°21.064 3°0.318 63.1 14.5 59 13.3
2004-05-13 07:30:03 51°21.076 3°0.352 63.1 14.5 60 13.3
2004-05-13 07:30:08 51°21.086 3°0.379 63.3 14.6 59 13.2
2004-05-13 07:30:13 51°21.096 3°0.408 63.8 14.7 59 13.1
2004-05-13 07:30:18 51°21.107 3°0.436 63.1 14.6 60 13.3
2004-05-13 07:30:23 51°21.117 3°0.464 63.6 14.6 60 13.1
2004-05-13 07:30:27 51°21.125 3°0.485 63.1 14.5 60 13.3
2004-05-13 07:30:33 51°21.137 3°0.52 63.5 14.6 61 13.3
2004-05-13 07:30:38 51°21.147 3°0.547 64.2 14.6 59 13.1
2004-05-13 07:30:43 51°21.158 3°0.575 63.2 14.5 59 13.3
2004-05-13 07:30:47 51°21.165 3°0.598 63.1 14.6 60 13.4
2004-05-13 07:30:53 51°21.178 3°0.631 63.1 14.7 59 13.3
2004-05-13 07:30:57 51°21.186 3°0.653 63.2 14.6 59 13.5
2004-05-13 07:31:02 51°21.197 3°0.681 62.7 14.5 59 13.5
2004-05-13 07:31:07 51°21.207 3°0.709 63 14.6 60 13.3
2004-05-13 07:31:13 51°21.219 3°0.742 63.1 14.6 60 13.4
2004-05-13 07:31:18 51°21.23 3°0.77 63.3 14.6 59 13.4
2004-05-13 07:31:23 51°21.24 3°0.798 63.1 14.6 58 13.4
2004-05-13 07:31:28 51°21.25 3°0.825 62.8 14.6 60 13.3
2004-05-13 07:31:33 51°21.261 3°0.854 63.3 14.6 59 13.4
2004-05-13 07:31:38 51°21.271 3°0.882 62.9 14.6 61 13.4
2004-05-13 07:31:43 51°21.282 3°0.909 63.6 14.5 59 13.6
2004-05-13 07:31:47 51°21.289 3°0.932 63 14.6 60 13.5
2004-05-13 07:31:53 51°21.302 3°0.965 63.3 14.4 59 13.3
2004-05-13 07:31:58 51°21.312 3°0.993 63.1 14.5 60 13.2
2004-05-13 07:32:03 51°21.322 3°1.021 63.4 14.6 60 13.3
2004-05-13 07:32:09 51°21.335 3°1.054 63 14.5 60 13.4
2004-05-13 07:32:13 51°21.342 3°1.077 63 14.6 61 13.5
2004-05-13 07:32:18 51°21.353 3°1.104 63.3 14.5 58 13.5
2004-05-13 07:32:23 51°21.363 3°1.132 62.5 14.6 61 13.3
2004-05-13 07:32:28 51°21.374 3°1.16 63.4 14.6 57 13.5
2004-05-13 07:32:33 51°21.384 3°1.188 63.1 14.5 59 13.6
2004-05-13 07:32:38 51°21.395 3°1.214 61.6 14.4 55 13.2
2004-05-13 07:32:43 51°21.406 3°1.241 59.1 14.4 56 13.3
2004-05-13 07:32:48 51°21.419 3°1.266 57.3 14.4 52 13.3
2004-05-13 07:32:53 51°21.432 3°1.291 55.8 14.5 52 13.5
2004-05-13 07:32:57 51°21.441 3°1.311 54.9 14.3 52 13.3
2004-05-13 07:33:02 51°21.454 3°1.335 54.2 14.3 50 13.3
2004-05-13 07:33:07 51°21.467 3°1.36 54.1 14.3 50 13.2
2004-05-13 07:33:13 51°21.482 3°1.389 53.8 14.4 48 13.4
2004-05-13 07:33:17 51°21.493 3°1.408 51.8 14.4 46 13.5
2004-05-13 07:33:23 51°21.51 3°1.435 49.6 14.4 46 13.5
2004-05-13 07:33:28 51°21.524 3°1.456 47.7 14.2 43 13.4
2004-05-13 07:33:33 51°21.539 3°1.479 46.8 14.3 44 13.5
2004-05-13 07:33:38 51°21.554 3°1.5 46.1 14.3 41 13.5
2004-05-13 07:33:43 51°21.568 3°1.522 45.3 14.4 43 13.5
2004-05-13 07:33:48 51°21.583 3°1.543 45.1 14.3 42 14
2004-05-13 07:33:53 51°21.597 3°1.565 44.3 14.2 43 13.8
2004-05-13 07:33:57 51°21.609 3°1.582 45.3 14.4 43 13.9
2004-05-13 07:34:03 51°21.627 3°1.607 45 14.4 41 13.6
2004-05-13 07:34:07 51°21.638 3°1.624 44.3 14.2 42 13.4
2004-05-13 07:34:13 51°21.656 3°1.65 44.5 14.1 42 13.6
2004-05-13 07:34:17 51°21.668 3°1.667 45 14.3 43 13.6
2004-05-13 07:34:23 51°21.685 3°1.693 45.6 14.3 43 13.6
2004-05-13 07:34:28 51°21.699 3°1.715 45.2 14.4 43 13.7
2004-05-13 07:34:33 51°21.714 3°1.737 45.3 14.2 43 13.9
2004-05-13 07:34:37 51°21.725 3°1.754 45 14.1 44 13.7
2004-05-13 07:34:43 51°21.742 3°1.78 45.4 14.1 43 13.4
2004-05-13 07:34:47 51°21.754 3°1.797 45.3 14.3 44 13.7
2004-05-13 07:34:53 51°21.771 3°1.823 45.1 14.1 43 13.5
2004-05-13 07:34:58 51°21.786 3°1.844 45 14.2 42 13.6
2004-05-13 07:35:03 51°21.8 3°1.866 44.5 14.2 43 13.7
2004-05-13 07:35:06 51°21.809 3°1.879 45 14.3 44 13.8
2004-05-13 07:35:13 51°21.829 3°1.909 44.9 14.4 43 13.9
2004-05-13 07:35:18 51°21.843 3°1.931 45.7 14.3 44 13.7
2004-05-13 07:35:23 51°21.858 3°1.952 45 14.4 42 13.7
2004-05-13 07:35:28 51°21.873 3°1.974 45.7 14.4 45 13.7
2004-05-13 07:35:33 51°21.887 3°1.996 45.4 14.3 43 13.6
2004-05-13 07:35:37 51°21.899 3°2.014 45.6 14.3 43 13.6
2004-05-13 07:35:43 51°21.916 3°2.04 45.5 14.3 43 13.6
2004-05-13 07:35:47 51°21.927 3°2.057 46.1 14.4 44 13.5
2004-05-13 07:35:53 51°21.945 3°2.084 45.5 14.3 43 13.6
2004-05-13 07:35:58 51°21.959 3°2.106 45.9 14.3 43 13.7
2004-05-13 07:36:01 51°21.968 3°2.118 45.5 14.2 43 13.5
2004-05-13 07:36:06 51°21.982 3°2.141 46 14.2 45 13.8
2004-05-13 07:36:13 51°22.002 3°2.172 46.2 14.4 44 13.8
2004-05-13 07:36:17 51°22.014 3°2.189 46.1 14.2 44 13.6
2004-05-13 07:36:23 51°22.031 3°2.216 46.4 14.2 44 13.8
2004-05-13 07:36:27 51°22.042 3°2.233 46.1 14.3 43 13.8
2004-05-13 07:36:33 51°22.059 3°2.26 45.7 14.4 44 13.8
2004-05-13 07:36:38 51°22.074 3°2.281 45.9 14.4 43 13.8
2004-05-13 07:36:43 51°22.088 3°2.303 45.3 14.4 43 13.8
2004-05-13 07:36:48 51°22.103 3°2.325 45.7 14.4 44 13.7
2004-05-13 07:36:53 51°22.117 3°2.347 45.7 14.3 43 13.8
2004-05-13 07:36:57 51°22.129 3°2.364 46 14.4 43 13.7
2004-05-13 07:37:02 51°22.143 3°2.387 46.3 14.5 44 13.8
2004-05-13 07:37:06 51°22.155 3°2.404 46.2 14.4 44 13.6
2004-05-13 07:37:13 51°22.175 3°2.435 45.6 14.4 43 13.6
2004-05-13 07:37:17 51°22.186 3°2.452 45.7 14.2 44 13.3
2004-05-13 07:37:23 51°22.203 3°2.479 46.1 14.2 44 13.7
2004-05-13 07:37:28 51°22.217 3°2.501 46.4 14.1 44 13.5
2004-05-13 07:37:33 51°22.232 3°2.523 46.9 14.3 45 13.4
2004-05-13 07:37:37 51°22.244 3°2.539 45.2 14.2 42 13.3
2004-05-13 07:37:43 51°22.261 3°2.564 44.2 14.1 41 13.6
2004-05-13 07:37:47 51°22.273 3°2.58 42.8 14.2 40 13.4
2004-05-13 07:37:53 51°22.291 3°2.605 42.3 14.2 40 13.4
2004-05-13 07:37:58 51°22.306 3°2.625 42 14.1 40 13.5
2004-05-13 07:38:02 51°22.318 3°2.64 41.8 14 40 13.4
2004-05-13 07:38:08 51°22.337 3°2.664 41.5 14.1 40 13.6
2004-05-13 07:38:13 51°22.352 3°2.685 41.8 14.2 41 13.6
2004-05-13 07:38:17 51°22.364 3°2.701 41.3 14.1 40 13.2
2004-05-13 07:38:23 51°22.381 3°2.725 41.3 14.1 40 13.2
2004-05-13 07:38:28 51°22.397 3°2.745 42 14.1 40 13.4
2004-05-13 07:38:33 51°22.411 3°2.766 41.8 14.1 41 13.3
2004-05-13 07:38:37 51°22.423 3°2.782 42.2 14.3 40 13.8
2004-05-13 07:38:43 51°22.441 3°2.807 41.8 14.3 40 13.7
2004-05-13 07:38:48 51°22.456 3°2.827 42 14 40 13.4
2004-05-13 07:38:53 51°22.471 3°2.847 42 14.2 42 13.4
2004-05-13 07:38:57 51°22.483 3°2.863 42 14.2 40 13.4
2004-05-13 07:39:03 51°22.501 3°2.887 41.3 14.2 39 13.3
2004-05-13 07:39:07 51°22.513 3°2.904 41.8 14.1 41 13.2
2004-05-13 07:39:13 51°22.531 3°2.928 42 14.2 40 13
2004-05-13 07:39:17 51°22.543 3°2.945 42.3 14 41 12.8
2004-05-13 07:39:23 51°22.561 3°2.969 42 14.1 40 12.9
2004-05-13 07:39:28 51°22.575 3°2.989 42 14.2 41 13.4
2004-05-13 07:39:33 51°22.59 3°3.009 42.2 14 41 13.4
2004-05-13 07:39:38 51°22.605 3°3.03 42.5 14.1 40 13.5
2004-05-13 07:39:43 51°22.62 3°3.05 42 14.1 40 13.8
2004-05-13 07:39:47 51°22.632 3°3.067 42.1 14.1 41 13.8
2004-05-13 07:39:53 51°22.65 3°3.091 42.2 14.1 40 13.5
2004-05-13 07:39:57 51°22.662 3°3.107 41.5 14.1 40 12.9
2004-05-13 07:40:03 51°22.68 3°3.131 42 14.1 40 12.4
2004-05-13 07:40:08 51°22.695 3°3.152 41.9 14.1 40 11.9
2004-05-13 07:40:13 51°22.71 3°3.172 41.9 14.2 41 12.1
2004-05-13 07:40:18 51°22.725 3°3.192 41.9 14.1 41 12.4
2004-05-13 07:40:23 51°22.74 3°3.213 41.9 14.2 41 12.8
2004-05-13 07:40:28 51°22.755 3°3.233 42 14.2 40 13.1
2004-05-13 07:40:33 51°22.77 3°3.254 41.5 14.4 41 13.2
2004-05-13 07:40:38 51°22.785 3°3.274 42.3 14.2 40 13.5
2004-05-13 07:40:43 51°22.8 3°3.294 42 14.1 40 13.4
2004-05-13 07:40:45 51°22.806 3°3.304 42.6 14 42 13.8
2004-05-13 07:40:53 51°22.829 3°3.336 42.7 13.9 41 13.8
2004-05-13 07:40:57 51°22.841 3°3.352 42.4 14.1 40 13.9
2004-05-13 07:41:03 51°22.859 3°3.377 42.3 14.1 41 14.1
2004-05-13 07:41:05 51°22.864 3°3.384 41.9 14.1 40 13.9
2004-05-13 07:41:13 51°22.888 3°3.416 42 14 40 13.8
2004-05-13 07:41:17 51°22.9 3°3.433 42.1 14 40 13.8
2004-05-13 07:41:23 51°22.918 3°3.458 42.3 14.2 42 13.7
2004-05-13 07:41:28 51°22.933 3°3.478 42.6 14.2 41 13.6
2004-05-13 07:41:33 51°22.948 3°3.499 42.6 14.2 41 13.7
2004-05-13 07:41:37 51°22.96 3°3.515 42 14.3 41 13.8
2004-05-13 07:41:42 51°22.974 3°3.536 42.4 14.3 41 13.9
2004-05-13 07:41:48 51°22.992 3°3.56 42 14.2 40 13.9
2004-05-13 07:41:53 51°23.007 3°3.581 42.1 14.2 41 14.3
2004-05-13 07:41:57 51°23.02 3°3.597 41.9 14.1 39 14.2
2004-05-13 07:42:02 51°23.034 3°3.618 42 14.2 41 14.2
2004-05-13 07:42:08 51°23.052 3°3.642 42.2 14.2 40 14.3
2004-05-13 07:42:13 51°23.067 3°3.663 42 14.3 41 14.3
2004-05-13 07:42:18 51°23.082 3°3.683 42.1 14.3 41 14.5
2004-05-13 07:42:23 51°23.097 3°3.704 42.8 14.3 42 14.4
2004-05-13 07:42:28 51°23.112 3°3.724 42.1 14.2 40 14.4
2004-05-13 07:42:33 51°23.127 3°3.745 42.2 14.2 40 14.3
2004-05-13 07:42:38 51°23.142 3°3.765 41.9 14.1 41 14.4
2004-05-13 07:42:43 51°23.157 3°3.785 42.1 14.1 41 14.2
2004-05-13 07:42:46 51°23.166 3°3.798 42.8 14.2 41 14.3
2004-05-13 07:42:53 51°23.187 3°3.824 41.2 14 37 14.3
2004-05-13 07:42:58 51°23.203 3°3.843 39.4 14 37 14.4
2004-05-13 07:43:03 51°23.219 3°3.861 38.3 13.9 36 14.8
2004-05-13 07:43:08 51°23.235 3°3.879 36.8 14 35 14.4
2004-05-13 07:43:13 51°23.251 3°3.896 36.4 14.2 34 14.5
2004-05-13 07:43:17 51°23.264 3°3.91 35.9 14.1 34 14.6
2004-05-13 07:43:22 51°23.28 3°3.927 35.5 14.1 34 14.6
2004-05-13 07:43:28 51°23.3 3°3.949 35.7 14.3 34 14.7
2004-05-13 07:43:33 51°23.316 3°3.967 35.3 14.3 34 14.5
2004-05-13 07:43:37 51°23.329 3°3.981 35.5 14.1 35 14.6
2004-05-13 07:43:43 51°23.348 3°4.003 36.3 14.3 35 14.8
2004-05-13 07:43:48 51°23.365 3°4.021 35.8 14.4 34 14.6
2004-05-13 07:43:53 51°23.381 3°4.039 35.6 14.3 34 14.5
2004-05-13 07:43:57 51°23.394 3°4.053 35.3 14.3 33 14.2
2004-05-13 07:44:03 51°23.414 3°4.074 35.2 14.4 34 14.1
2004-05-13 07:44:07 51°23.428 3°4.087 33.5 14.2 31 13.9
2004-05-13 07:44:13 51°23.448 3°4.106 31.8 14.3 31 13.8
2004-05-13 07:44:17 51°23.462 3°4.119 31 14.2 30 13.9
2004-05-13 07:44:23 51°23.482 3°4.138 30.6 14.2 30 13.7
2004-05-13 07:44:27 51°23.496 3°4.15 29.8 14.3 29 13.6
2004-05-13 07:44:33 51°23.517 3°4.169 29.5 14.3 29 13.8
2004-05-13 07:44:37 51°23.531 3°4.181 29.3 14 30 14.5
2004-05-13 07:44:43 51°23.55 3°4.199 29.2 13.8 29 14.4
2004-05-13 07:44:45 51°23.557 3°4.205 29.5 13.9 29 14.9
2004-05-13 07:44:53 51°23.584 3°4.229 29.4 14.2 28 14.9
2004-05-13 07:44:57 51°23.598 3°4.241 28.7 14.2 28 14.9
2004-05-13 07:45:03 51°23.619 3°4.259 28.4 14.1 28 15
2004-05-13 07:45:08 51°23.636 3°4.275 29 14.2 29 14.7
2004-05-13 07:45:13 51°23.653 3°4.29 29.3 14.2 29 14.9
2004-05-13 07:45:17 51°23.667 3°4.303 29.5 14.2 29 14.8
2004-05-13 07:45:22 51°23.684 3°4.317 29.3 14.1 29 14.6
2004-05-13 07:45:28 51°23.705 3°4.336 29.7 14.1 30 14.8
2004-05-13 07:45:33 51°23.722 3°4.351 29.7 14.2 29 14.9
2004-05-13 07:45:38 51°23.739 3°4.367 29.7 14.2 29 14.9
2004-05-13 07:45:43 51°23.756 3°4.382 29.6 14.3 29 14.8
2004-05-13 07:45:48 51°23.774 3°4.397 29.7 14.2 28 14.8
2004-05-13 07:45:53 51°23.791 3°4.413 29.7 14.2 30 15.2
2004-05-13 07:45:58 51°23.808 3°4.428 29.7 14.2 30 15.4
2004-05-13 07:46:03 51°23.825 3°4.444 29.7 14.2 30 15.7
2004-05-13 07:46:08 51°23.842 3°4.459 30.1 14.2 30 15.7
2004-05-13 07:46:13 51°23.859 3°4.475 30.1 14.1 30 15.3
2004-05-13 07:46:18 51°23.876 3°4.491 30 14.1 30 15.5
2004-05-13 07:46:23 51°23.893 3°4.506 30 14.1 29 15.7
2004-05-13 07:46:28 51°23.911 3°4.522 30 14.2 30 16
2004-05-13 07:46:33 51°23.928 3°4.537 29.8 14.2 29 16
2004-05-13 07:46:38 51°23.945 3°4.552 30.1 14.2 29 16.1
2004-05-13 07:46:42 51°23.958 3°4.564 29.7 14.2 28 16.3
2004-05-13 07:46:48 51°23.979 3°4.582 29.5 14.2 28 16.4
2004-05-13 07:46:53 51°23.997 3°4.598 29.4 14.2 29 16.6
2004-05-13 07:46:57 51°24.01 3°4.611 30.1 14.3 30 16.9
2004-05-13 07:47:03 51°24.031 3°4.63 30.7 14.3 30 17.3
2004-05-13 07:47:08 51°24.048 3°4.645 30.7 14.3 30 17.8
2004-05-13 07:47:13 51°24.065 3°4.661 30 14.1 29 18.4
2004-05-13 07:47:17 51°24.079 3°4.674 30.2 14.3 30 19.6
2004-05-13 07:47:23 51°24.101 3°4.693 29.8 14.4 29 20.8
2004-05-13 07:47:28 51°24.118 3°4.708 29.7 14.4 29 20.4
2004-05-13 07:47:33 51°24.135 3°4.724 30.1 14.3 29 20.5
2004-05-13 07:47:38 51°24.152 3°4.74 30.2 14.4 31 20.4
2004-05-13 07:47:43 51°24.17 3°4.756 30.6 14.3 30 20.5
2004-05-13 07:47:47 51°24.183 3°4.768 30.2 14.3 30 20.9
2004-05-13 07:47:53 51°24.204 3°4.787 30.2 14.3 29 20.8
2004-05-13 07:47:57 51°24.218 3°4.8 30.4 14.4 31 20.7
2004-05-13 07:48:03 51°24.238 3°4.819 30.5 14.4 30 20.7
2004-05-13 07:48:07 51°24.252 3°4.832 30.5 14.3 29 20.3
2004-05-13 07:48:13 51°24.273 3°4.85 30 14.2 29 20.8
2004-05-13 07:48:17 51°24.286 3°4.862 30.1 14 28 20.7
2004-05-13 07:48:22 51°24.303 3°4.877 29.7 14.1 29 20.7
2004-05-13 07:48:28 51°24.324 3°4.896 29.9 14.2 29 20
2004-05-13 07:48:33 51°24.341 3°4.911 31 14 30 19.5
2004-05-13 07:48:37 51°24.354 3°4.923 30.4 14 29 19.1
2004-05-13 07:48:42 51°24.371 3°4.939 30.2 14 29 18.6
2004-05-13 07:48:47 51°24.388 3°4.954 30.4 14.1 30 18.4
2004-05-13 07:48:53 51°24.409 3°4.973 30 14.3 30 17.9
2004-05-13 07:48:57 51°24.422 3°4.986 30.4 14.3 30 17.7
2004-05-13 07:49:03 51°24.443 3°5.004 30.4 14.1 30 17.2
2004-05-13 07:49:07 51°24.456 3°5.017 30.5 14.1 30 16.7
2004-05-13 07:49:13 51°24.477 3°5.036 30.2 14.1 30 16.6
2004-05-13 07:49:18 51°24.493 3°5.052 30.5 14 31 15.8
2004-05-13 07:49:23 51°24.51 3°5.067 30.4 13.8 29 15.5
2004-05-13 07:49:27 51°24.524 3°5.08 30.7 14 31 15.5
2004-05-13 07:49:33 51°24.544 3°5.098 30.4 14 29 15.2
2004-05-13 07:49:37 51°24.557 3°5.111 29.9 14 31 15.3
2004-05-13 07:49:43 51°24.577 3°5.129 30.8 14.1 30 15.1
2004-05-13 07:49:48 51°24.594 3°5.145 30.4 13.9 30 14.8
2004-05-13 07:49:53 51°24.611 3°5.161 30.5 13.9 30 15.2
2004-05-13 07:49:58 51°24.627 3°5.176 30.4 14 29 15.2
2004-05-13 07:50:03 51°24.644 3°5.191 29.9 14 29 15
2004-05-13 07:50:08 51°24.661 3°5.206 29.7 14 30 15
2004-05-13 07:50:13 51°24.678 3°5.222 30 14 30 15
2004-05-13 07:50:17 51°24.692 3°5.235 30.3 14.1 30 15.3
2004-05-13 07:50:22 51°24.709 3°5.25 30.7 14.1 30 15.1
2004-05-13 07:50:28 51°24.729 3°5.269 30.3 14.1 30 15.2
2004-05-13 07:50:33 51°24.746 3°5.284 30.4 14.1 30 15
2004-05-13 07:50:37 51°24.76 3°5.297 30.4 14.1 29 15
2004-05-13 07:50:43 51°24.78 3°5.315 30 14.1 29 15.2
2004-05-13 07:50:48 51°24.797 3°5.331 30 14.1 29 15.2
2004-05-13 07:50:53 51°24.814 3°5.346 29.9 14.1 29 15.3
2004-05-13 07:50:58 51°24.831 3°5.362 30.2 14.1 31 15.1
2004-05-13 07:51:03 51°24.848 3°5.377 30.1 14.1 30 15.3
2004-05-13 07:51:08 51°24.865 3°5.393 30 14 30 15
2004-05-13 07:51:13 51°24.882 3°5.408 30.4 14 29 14.6
2004-05-13 07:51:17 51°24.895 3°5.42 30.4 14 30 14.8
2004-05-13 07:51:22 51°24.912 3°5.435 30 14 29 14.8
2004-05-13 07:51:28 51°24.933 3°5.454 29.7 14 29 14.7
2004-05-13 07:51:33 51°24.95 3°5.469 30.2 14.2 29 14.7
2004-05-13 07:51:37 51°24.963 3°5.481 29.7 14.1 29 14.6
2004-05-13 07:51:43 51°24.984 3°5.499 30.2 14.1 29 14.5
2004-05-13 07:51:48 51°25.001 3°5.515 30 14.1 29 14.4
2004-05-13 07:51:53 51°25.018 3°5.531 30.6 14.1 31 14.4
2004-05-13 07:51:58 51°25.034 3°5.548 32 14.3 32 14.5
2004-05-13 07:52:03 51°25.051 3°5.564 33.1 14.3 31 14.4
2004-05-13 07:52:08 51°25.068 3°5.582 33 14.1 33 14.4
2004-05-13 07:52:13 51°25.084 3°5.599 34.1 14.2 34 14.2
2004-05-13 07:52:18 51°25.101 3°5.616 34.9 14.2 33 13.9
2004-05-13 07:52:23 51°25.117 3°5.633 34.2 14.2 33 13.8
2004-05-13 07:52:28 51°25.133 3°5.652 35.5 14.1 35 13.7
2004-05-13 07:52:33 51°25.149 3°5.668 35.3 14.3 34 13.6
2004-05-13 07:52:37 51°25.162 3°5.682 34.7 14.1 34 13.6
2004-05-13 07:52:43 51°25.182 3°5.703 34.8 14.1 33 13.6
2004-05-13 07:52:48 51°25.199 3°5.72 34.3 14.1 33 13.5
2004-05-13 07:52:53 51°25.215 3°5.738 34.8 14.3 34 13.5
2004-05-13 07:52:58 51°25.231 3°5.756 35.3 14.3 36 13.7
2004-05-13 07:53:03 51°25.247 3°5.776 37.4 14.3 38 13.6
2004-05-13 07:53:08 51°25.262 3°5.795 39.1 14.3 38 13.3
2004-05-13 07:53:13 51°25.277 3°5.816 40.7 14.2 41 13.4
2004-05-13 07:53:18 51°25.292 3°5.837 41.7 14.3 41 13.4
2004-05-13 07:53:23 51°25.307 3°5.858 42.6 14.3 42 13.5
2004-05-13 07:53:28 51°25.322 3°5.879 43.1 14.2 41 13.5
2004-05-13 07:53:33 51°25.337 3°5.9 43.4 14.2 41 13.4
2004-05-13 07:53:38 51°25.351 3°5.922 43.6 14.3 43 13.2
2004-05-13 07:53:43 51°25.365 3°5.944 44.6 14.3 44 13.4
2004-05-13 07:53:48 51°25.38 3°5.966 45.1 14.2 43 13.1
2004-05-13 07:53:51 51°25.388 3°5.979 46 14.3 45 13.1
2004-05-13 07:53:58 51°25.408 3°6.01 46.3 14.2 44 13.2
2004-05-13 07:54:03 51°25.422 3°6.033 47.1 14.3 46 13.1
2004-05-13 07:54:08 51°25.436 3°6.056 47.7 14.4 45 12.9
2004-05-13 07:54:13 51°25.449 3°6.079 48.1 14.4 46 12.6
2004-05-13 07:54:17 51°25.46 3°6.097 48.2 14.2 46 12.8
2004-05-13 07:54:23 51°25.477 3°6.126 48.6 14.4 47 12.8
2004-05-13 07:54:28 51°25.49 3°6.148 48.5 14.2 46 12.5
2004-05-13 07:54:33 51°25.503 3°6.172 48.9 14.2 49 12.6
2004-05-13 07:54:38 51°25.516 3°6.196 50.4 14.3 49 12.6
2004-05-13 07:54:43 51°25.529 3°6.221 51.6 14.3 50 12.6
2004-05-13 07:54:48 51°25.541 3°6.246 52.6 14.4 51 12.7
2004-05-13 07:54:53 51°25.553 3°6.271 53.7 14.4 54 12.6
2004-05-13 07:54:58 51°25.565 3°6.297 55.2 14.3 55 12.8
2004-05-13 07:55:03 51°25.576 3°6.324 57.6 14.4 56 12.7
2004-05-13 07:55:07 51°25.585 3°6.345 59.2 14.4 57 12.4
2004-05-13 07:55:13 51°25.598 3°6.378 59.3 14.4 57 12.7
2004-05-13 07:55:18 51°25.608 3°6.405 59.8 14.3 57 12.7
2004-05-13 07:55:23 51°25.618 3°6.432 60.5 14.3 59 12.3
2004-05-13 07:55:28 51°25.628 3°6.46 62.9 14.5 61 12.2
2004-05-13 07:55:33 51°25.638 3°6.488 63.6 14.4 60 12.2
2004-05-13 07:55:38 51°25.648 3°6.516 64.2 14.4 59 12.5
2004-05-13 07:55:42 51°25.656 3°6.538 63.1 14.3 60 12.3
2004-05-13 07:55:46 51°25.664 3°6.559 61.6 14.3 56 12.5
2004-05-13 07:55:53 51°25.679 3°6.597 59.6 14.4 57 12.4
2004-05-13 07:55:58 51°25.691 3°6.623 59.9 14.5 55 12.5
2004-05-13 07:56:03 51°25.702 3°6.649 58.2 14.5 56 12.4
2004-05-13 07:56:08 51°25.714 3°6.675 58.2 14.2 55 12.4
2004-05-13 07:56:13 51°25.725 3°6.702 58.5 14.3 56 12.4
2004-05-13 07:56:18 51°25.736 3°6.728 58.6 14.3 55 12.4
2004-05-13 07:56:23 51°25.748 3°6.754 57.6 14.2 54 12.4
2004-05-13 07:56:28 51°25.759 3°6.78 58.5 14.2 57 12.5
2004-05-13 07:56:33 51°25.77 3°6.806 58.4 14.4 54 12.3
2004-05-13 07:56:43 51°25.792 3°6.859 58.5 14.4 57 12.5
2004-05-13 07:56:48 51°25.804 3°6.885 58.1 14.4 54 12.3
2004-05-13 07:56:53 51°25.816 3°6.911 57.1 14.3 54 12.2
2004-05-13 07:56:57 51°25.825 3°6.932 58.2 14.4 55 12.2
2004-05-13 07:57:02 51°25.836 3°6.958 57.8 14.4 54 12.3
2004-05-13 07:57:07 51°25.848 3°6.984 57.5 14.3 55 12.2
2004-05-13 07:57:13 51°25.862 3°7.015 57.9 14.3 54 12.3
2004-05-13 07:57:18 51°25.873 3°7.041 57.4 14.2 55 12.2
2004-05-13 07:57:20 51°25.877 3°7.052 58.3 14.2 54 12.2
2004-05-13 07:57:27 51°25.893 3°7.088 58 14.4 55 12.2
2004-05-13 07:57:33 51°25.907 3°7.12 57.7 14.5 55 12.2
2004-05-13 07:57:37 51°25.916 3°7.14 57.8 14.4 55 12
2004-05-13 07:57:43 51°25.93 3°7.171 57.8 14.3 54 12
2004-05-13 07:57:45 51°25.935 3°7.182 57.7 14.3 55 12
2004-05-13 07:57:53 51°25.953 3°7.224 58.1 14.5 54 11.8
2004-05-13 07:57:57 51°25.963 3°7.245 57.8 14.6 55 11.6
2004-05-13 07:58:03 51°25.977 3°7.276 57.7 14.6 53 11.6
2004-05-13 07:58:08 51°25.988 3°7.303 57.3 14.4 55 11.4
2004-05-13 07:58:13 51°26 3°7.329 57.8 14.5 55 11
2004-05-13 07:58:17 51°26.009 3°7.35 57.4 14.4 55 11
2004-05-13 07:58:22 51°26.021 3°7.376 57.4 14.4 55 10.9
2004-05-13 07:58:28 51°26.034 3°7.407 57.3 14.4 55 10.6
2004-05-13 07:58:33 51°26.046 3°7.434 58.6 14.4 56 10.4
2004-05-13 07:58:37 51°26.055 3°7.454 58 14.3 54 10.4
2004-05-13 07:58:42 51°26.067 3°7.48 57.3 14.2 55 10.4
2004-05-13 07:58:48 51°26.08 3°7.512 58 14.3 55 10.6
2004-05-13 07:58:53 51°26.092 3°7.537 57.3 14.4 53 10.6
2004-05-13 07:58:58 51°26.104 3°7.563 57.1 14.4 55 10.7
2004-05-13 07:59:03 51°26.115 3°7.589 57.4 14.3 54 10.9